Time,TemperatureF,DewpointF,PressureIn,WindDirection,WindDirectionDegrees,WindSpeedMPH,WindSpeedGustMPH,Humidity,HourlyPrecipIn,Conditions,Clouds,dailyrainin,SolarRadiationWatts/m^2,SoftwareType,DateUTC
2013-07-16 12:43:00,80.0,73.0,-100.00,ESE,120,9.0,14.0,79,-99.99,,,4.52,427.000000,,2013-07-16 17:43:00,
2013-07-16 12:53:00,80.0,73.0,-100.00,ESE,120,9.0,14.0,79,-99.99,,,4.52,427.000000,,2013-07-16 17:53:00,
2013-07-16 13:01:00,80.0,73.0,-100.00,ESE,120,9.0,14.0,79,-99.99,,,4.52,427.000000,,2013-07-16 18:01:00,
2013-07-16 13:33:00,80.0,71.0,-100.00,SE,129,13.0,17.0,73,0.00,,,4.46,383.000000,,2013-07-16 18:33:00,
2013-07-16 13:43:00,80.0,71.0,-100.00,SE,129,13.0,17.0,73,0.00,,,4.46,383.000000,,2013-07-16 18:43:00,
2013-07-16 13:53:00,80.0,71.0,-100.00,SE,129,13.0,17.0,73,0.00,,,4.46,383.000000,,2013-07-16 18:53:00,
2013-07-16 14:01:00,80.0,71.0,-100.00,SE,129,13.0,17.0,73,0.00,,,4.46,383.000000,,2013-07-16 19:01:00,
2013-07-16 14:32:00,80.0,69.0,-100.00,SE,128,9.0,15.0,70,0.01,,,4.42,397.000000,,2013-07-16 19:32:00,
2013-07-16 14:43:00,80.0,69.0,-100.00,SE,128,9.0,15.0,70,0.01,,,4.42,397.000000,,2013-07-16 19:43:00,
2013-07-16 14:52:00,80.0,69.0,-100.00,SE,128,9.0,15.0,70,0.01,,,4.42,397.000000,,2013-07-16 19:52:00,
2013-07-16 15:03:00,80.0,69.0,-100.00,SE,128,9.0,15.0,70,0.01,,,4.42,397.000000,,2013-07-16 20:03:00,
2013-07-16 15:32:00,75.0,62.0,-100.00,SE,126,15.0,25.0,64,0.03,,,4.38,330.000000,,2013-07-16 20:32:00,
2013-07-16 15:43:00,75.0,62.0,-100.00,SE,126,15.0,25.0,64,0.03,,,4.38,330.000000,,2013-07-16 20:43:00,
2013-07-16 15:52:00,75.0,62.0,-100.00,SE,126,15.0,25.0,64,0.03,,,4.38,330.000000,,2013-07-16 20:52:00,
2013-07-16 16:01:00,75.0,62.0,-100.00,SE,126,15.0,25.0,64,0.03,,,4.38,330.000000,,2013-07-16 21:01:00,
2013-07-16 16:43:00,78.0,73.0,-100.00,SSE,156,4.0,19.0,85,0.03,,,4.10,374.000000,,2013-07-16 21:43:00,
2013-07-16 16:52:00,78.0,73.0,-100.00,SSE,156,4.0,19.0,85,0.03,,,4.10,374.000000,,2013-07-16 21:52:00,
2013-07-16 17:01:00,78.0,73.0,-100.00,SSE,156,4.0,19.0,85,0.03,,,4.10,374.000000,,2013-07-16 22:01:00,
2013-07-16 17:33:00,76.0,67.0,-100.00,South,173,7.0,17.0,75,0.06,,,-99.99,273.000000,,2013-07-16 22:33:00,
2013-07-16 17:43:00,76.0,67.0,-100.00,South,173,7.0,17.0,75,0.06,,,-99.99,273.000000,,2013-07-16 22:43:00,
2013-07-16 17:52:00,76.0,67.0,-100.00,South,173,7.0,17.0,75,0.06,,,-99.99,273.000000,,2013-07-16 22:52:00,
2013-07-16 18:01:00,76.0,67.0,-100.00,South,173,7.0,17.0,75,0.06,,,-99.99,273.000000,,2013-07-16 23:01:00,
2013-07-16 18:32:00,76.0,72.0,-100.00,SSW,196,3.0,10.0,88,0.03,,,3.62,191.000000,,2013-07-16 23:32:00,
2013-07-16 18:43:00,76.0,72.0,-100.00,SSW,196,3.0,10.0,88,0.03,,,3.62,191.000000,,2013-07-16 23:43:00,
2013-07-16 18:52:00,76.0,72.0,-100.00,SSW,196,3.0,10.0,88,0.03,,,3.62,191.000000,,2013-07-16 23:52:00,
2013-07-16 19:01:00,76.0,72.0,-100.00,SSW,196,3.0,10.0,88,0.03,,,3.62,191.000000,,2013-07-17 00:01:00,
2013-07-16 19:33:00,76.0,71.0,-100.00,ESE,107,3.0,7.0,84,0.00,,,3.61,153.000000,,2013-07-17 00:33:00,
2013-07-16 19:42:00,76.0,71.0,-100.00,ESE,107,3.0,7.0,84,0.00,,,3.61,153.000000,,2013-07-17 00:42:00,
2013-07-16 19:52:00,76.0,71.0,-100.00,ESE,107,3.0,7.0,84,0.00,,,3.61,153.000000,,2013-07-17 00:52:00,
2013-07-16 20:01:00,76.0,71.0,-100.00,ESE,107,3.0,7.0,84,0.00,,,3.61,153.000000,,2013-07-17 01:01:00,
2013-07-16 20:32:00,76.0,70.0,-100.00,SSW,195,0.0,4.0,82,0.00,,,3.59,52.000000,,2013-07-17 01:32:00,
2013-07-16 20:43:00,76.0,70.0,-100.00,SSW,195,0.0,4.0,82,0.00,,,3.59,52.000000,,2013-07-17 01:43:00,
2013-07-16 20:53:00,76.0,70.0,-100.00,SSW,195,0.0,4.0,82,0.00,,,3.59,52.000000,,2013-07-17 01:53:00,
2013-07-16 21:01:00,76.0,70.0,-100.00,SSW,195,0.0,4.0,82,0.00,,,3.59,52.000000,,2013-07-17 02:01:00,
2013-07-16 21:32:00,75.0,70.0,-100.00,NE,55,8.0,10.0,84,0.00,,,3.59,6.000000,,2013-07-17 02:32:00,
2013-07-16 21:43:00,75.0,70.0,-100.00,NE,55,8.0,10.0,84,0.00,,,3.59,6.000000,,2013-07-17 02:43:00,
2013-07-16 21:53:00,75.0,70.0,-100.00,NE,55,8.0,10.0,84,0.00,,,3.59,6.000000,,2013-07-17 02:53:00,
2013-07-16 22:01:00,75.0,70.0,-100.00,NE,55,8.0,10.0,84,0.00,,,3.59,6.000000,,2013-07-17 03:01:00,
2013-07-16 22:32:00,74.0,70.0,-100.00,ENE,58,6.0,10.0,88,0.00,,,3.57,0.000000,,2013-07-17 03:32:00,
2013-07-16 22:43:00,74.0,70.0,-100.00,ENE,58,6.0,10.0,88,0.00,,,3.57,0.000000,,2013-07-17 03:43:00,
2013-07-16 22:53:00,74.0,70.0,-100.00,ENE,58,6.0,10.0,88,0.00,,,3.57,0.000000,,2013-07-17 03:53:00,
2013-07-16 23:01:00,74.0,70.0,-100.00,ENE,58,6.0,10.0,88,0.00,,,3.57,0.000000,,2013-07-17 04:01:00,
2013-07-16 23:32:00,73.0,68.0,-100.00,East,94,9.0,16.0,84,0.01,,,-99.99,0.000000,,2013-07-17 04:32:00,
2013-07-16 23:43:00,73.0,68.0,-100.00,East,94,9.0,16.0,84,0.01,,,-99.99,0.000000,,2013-07-17 04:43:00,
2013-07-16 23:53:00,73.0,68.0,-100.00,East,94,9.0,16.0,84,0.01,,,-99.99,0.000000,,2013-07-17 04:53:00,